This is the latest recevied weather packets stored in our database for station/object KF6RAL-6. If no packets are shown the sender has not sent any weather packets the latest 10 day(s).
| Time | Temp. | Humidity | Pressure | Rain* | Wind** | Luminosity | Snow |
|---|---|---|---|---|---|---|---|
| 1788413421 | 23.33° C | 26% | 1010.3 hPa | 0 mm | - | - | - |
| 1788413000 | 22.78° C | 27% | 1010.6 hPa | 0 mm | - | - | - |
| 1788412579 | 22.78° C | 28% | 1010.6 hPa | 0 mm | - | - | - |
| 1788412158 | 22.78° C | 25% | 1010.8 hPa | 0 mm | - | - | - |
| 1788411737 | 21.67° C | 30% | 1010.9 hPa | 0 mm | - | - | - |
| 1788411316 | 21.67° C | 31% | 1011 hPa | 0 mm | - | - | - |
| 1788410895 | 22.22° C | 30% | 1011.1 hPa | 0 mm | - | - | - |
| 1788410476 | 22.22° C | 26% | 1010.3 hPa | 0 mm | - | - | - |
| 1788410055 | 22.22° C | 25% | 1010.4 hPa | 0 mm | - | - | - |
| 1788409632 | 22.22° C | 24% | 1010.2 hPa | 0 mm | - | - | - |
| 1788409211 | 22.22° C | 24% | 1010.2 hPa | 0 mm | - | - | - |
| 1788408790 | 22.78° C | 24% | 1010.7 hPa | 0 mm | - | - | - |
| 1788408369 | 22.78° C | 23% | 1010.6 hPa | 0 mm | - | - | - |
| 1788407948 | 22.78° C | 24% | 1010.6 hPa | 0 mm | - | - | - |
| 1788407527 | 22.78° C | 24% | 1010 hPa | 0 mm | - | - | - |
| 1788407106 | 22.78° C | 24% | 1009.8 hPa | 0 mm | - | - | - |
| 1788406685 | 22.22° C | 25% | 1009.8 hPa | 0 mm | - | - | - |
| 1788406264 | 22.78° C | 25% | 1010.6 hPa | 0 mm | - | - | - |
| 1788405843 | 22.78° C | 25% | 1009.7 hPa | 0 mm | - | - | - |
| 1788405422 | 22.78° C | 25% | 1009.9 hPa | 0 mm | - | - | - |
| 1788405001 | 22.78° C | 25% | 1009.7 hPa | 0 mm | - | - | - |
| 1788404580 | 22.78° C | 26% | 1009.7 hPa | 0 mm | - | - | - |
| 1788404159 | 23.33° C | 27% | 1010.4 hPa | 0 mm | - | - | - |
| 1788403738 | 23.89° C | 25% | 1010.1 hPa | 0 mm | - | - | - |
| 1788403317 | 23.89° C | 26% | 1009.9 hPa | 0 mm | - | - | - |
* Rain latest hour (hover to see other rain measurements)
** Current wind speed in m/s (hover to see current wind gust speed)